createdAt,value
2023-02-15T00:01:56.971Z,79.30
2023-02-15T00:04:51.385Z,78.70
2023-02-15T00:07:21.320Z,79.30
2023-02-15T00:09:52.516Z,79.10
2023-02-15T00:12:21.560Z,78.70
2023-02-15T00:17:37.018Z,79.50
2023-02-15T00:20:06.547Z,80.10
2023-02-15T00:22:35.519Z,80.40
2023-02-15T00:25:06.581Z,80.50
2023-02-15T00:27:36.702Z,80.40
2023-02-15T00:30:07.291Z,80.60
2023-02-15T00:32:53.574Z,80.90
2023-02-15T00:35:22.685Z,80.50
2023-02-15T00:40:59.078Z,79.30
2023-02-15T00:43:28.556Z,78.70
2023-02-15T00:46:15.392Z,77.90
2023-02-15T00:49:01.621Z,78.00
2023-02-15T00:51:31.185Z,78.30
2023-02-15T00:54:00.175Z,78.40
2023-02-15T00:56:30.681Z,78.00
2023-02-15T00:59:00.274Z,77.40
2023-02-15T01:01:30.376Z,77.40
2023-02-15T01:03:59.571Z,77.80
2023-02-15T01:06:32.109Z,77.50
2023-02-15T01:09:19.629Z,77.00
2023-02-15T01:11:50.231Z,76.20
2023-02-15T01:14:19.501Z,75.60
2023-02-15T01:16:48.600Z,75.60
2023-02-15T01:19:17.600Z,75.30
2023-02-15T01:22:03.811Z,74.90
2023-02-15T01:24:32.963Z,75.50
2023-02-15T01:27:06.458Z,76.50
2023-02-15T01:29:35.556Z,77.20
2023-02-15T01:32:05.132Z,77.90
2023-02-15T01:34:34.321Z,78.50
2023-02-15T01:37:03.521Z,79.10
2023-02-15T01:39:32.471Z,78.90
2023-02-15T01:42:01.411Z,78.80
2023-02-15T01:45:09.781Z,79.30
2023-02-15T01:47:43.601Z,78.70
2023-02-15T01:50:18.111Z,79.20
2023-02-15T01:52:51.778Z,79.20
2023-02-15T01:55:22.138Z,79.00
2023-02-15T01:57:52.261Z,78.10
2023-02-15T02:00:23.448Z,77.80
2023-02-15T02:02:56.455Z,77.10
2023-02-15T02:08:15.093Z,76.20
2023-02-15T02:10:45.325Z,75.70
2023-02-15T02:13:15.666Z,76.00
2023-02-15T02:15:55.001Z,75.90
2023-02-15T02:18:51.277Z,74.70
2023-02-15T02:21:45.786Z,74.20
2023-02-15T02:24:53.157Z,74.20
2023-02-15T02:27:44.280Z,74.80
2023-02-15T02:30:46.480Z,75.80
2023-02-15T02:33:40.831Z,76.90
2023-02-15T02:36:19.018Z,77.00
2023-02-15T02:39:09.936Z,77.20
2023-02-15T02:41:46.859Z,76.40
2023-02-15T02:44:21.522Z,76.40
2023-02-15T02:46:55.372Z,76.10
2023-02-15T02:49:40.145Z,76.00
2023-02-15T02:52:30.164Z,76.20
2023-02-15T02:55:01.764Z,76.20
2023-02-15T02:57:32.867Z,76.30
2023-02-15T03:00:04.341Z,76.00
2023-02-15T03:02:37.260Z,76.40
2023-02-15T03:05:28.411Z,76.50
2023-02-15T03:07:59.317Z,76.80
2023-02-15T03:10:31.278Z,76.60
2023-02-15T03:13:00.368Z,77.20
2023-02-15T03:15:51.446Z,77.00
2023-02-15T03:18:42.755Z,77.70
2023-02-15T03:21:23.346Z,78.20
2023-02-15T03:24:16.306Z,78.60
2023-02-15T03:26:52.198Z,78.80
2023-02-15T03:29:24.143Z,79.40
2023-02-15T03:31:57.927Z,79.10
2023-02-15T03:34:44.686Z,79.10
2023-02-15T03:37:20.423Z,78.90
2023-02-15T03:39:55.543Z,80.20
2023-02-15T03:42:30.617Z,80.40
2023-02-15T03:47:53.375Z,79.70
2023-02-15T03:50:50.032Z,79.50
2023-02-15T03:53:24.034Z,79.20
2023-02-15T03:55:56.776Z,78.80
2023-02-15T03:58:44.434Z,78.70
2023-02-15T04:01:39.894Z,78.70
2023-02-15T04:04:13.401Z,79.80
2023-02-15T04:06:42.363Z,79.60
2023-02-15T04:09:47.197Z,79.20
2023-02-15T04:12:16.161Z,80.20
2023-02-15T04:15:03.935Z,80.90
2023-02-15T04:17:33.030Z,81.50
2023-02-15T04:20:19.061Z,80.50
2023-02-15T04:23:05.160Z,80.10
2023-02-15T04:25:34.214Z,79.90
2023-02-15T04:28:03.103Z,81.30
2023-02-15T04:30:33.447Z,80.80
2023-02-15T04:33:02.395Z,81.20
2023-02-15T04:35:32.873Z,81.60
2023-02-15T04:38:02.204Z,81.60
2023-02-15T04:40:31.242Z,81.60
2023-02-15T04:43:00.137Z,82.80
2023-02-15T04:45:29.719Z,82.80
2023-02-15T04:48:00.121Z,82.80
2023-02-15T04:50:29.057Z,82.90
2023-02-15T04:52:58.062Z,83.30
2023-02-15T04:55:28.097Z,84.80
2023-02-15T05:00:43.099Z,83.60
2023-02-15T05:03:13.506Z,83.00
2023-02-15T05:05:42.481Z,83.30
2023-02-15T05:08:11.410Z,83.10
2023-02-15T05:10:40.295Z,83.70
2023-02-15T05:13:09.259Z,82.70
2023-02-15T05:15:38.481Z,83.90
2023-02-15T05:18:08.418Z,84.90
2023-02-15T05:20:38.928Z,84.90
2023-02-15T05:23:25.127Z,84.30
2023-02-15T05:32:20.706Z,84.90
2023-02-15T05:35:08.806Z,83.80
2023-02-15T05:37:39.351Z,83.30
2023-02-15T05:40:10.105Z,85.00
2023-02-15T05:42:39.037Z,85.60
2023-02-15T05:45:09.190Z,86.20
2023-02-15T05:47:38.207Z,85.50
2023-02-15T05:50:08.664Z,85.00
2023-02-15T05:52:39.181Z,85.00
2023-02-15T05:55:26.026Z,86.00
2023-02-15T05:57:55.133Z,86.20
2023-02-15T06:00:24.534Z,85.70
2023-02-15T06:02:53.506Z,85.10
2023-02-15T06:05:22.626Z,85.90
2023-02-15T06:07:53.004Z,85.70
2023-02-15T06:10:22.165Z,86.00
2023-02-15T06:12:51.148Z,86.10
2023-02-15T06:15:38.947Z,86.00
2023-02-15T06:18:08.054Z,84.60
2023-02-15T06:20:37.492Z,84.50
2023-02-15T06:23:07.936Z,90.10
2023-02-15T06:25:39.712Z,82.40
2023-02-15T06:33:41.475Z,82.10
2023-02-15T06:36:10.548Z,81.00
2023-02-15T06:41:27.734Z,81.00
2023-02-15T06:46:42.961Z,80.80
2023-02-15T06:49:12.156Z,80.80
2023-02-15T06:51:41.108Z,80.20
2023-02-15T06:54:11.650Z,80.50
2023-02-15T06:56:40.612Z,79.90
2023-02-15T06:59:09.562Z,79.10
2023-02-15T07:01:55.864Z,79.20
2023-02-15T07:04:42.065Z,79.70
2023-02-15T07:07:12.586Z,79.60
2023-02-15T07:09:42.989Z,80.20
2023-02-15T07:12:29.088Z,80.80
2023-02-15T07:14:59.337Z,80.30
2023-02-15T07:17:35.761Z,80.00
2023-02-15T07:20:25.500Z,79.50
2023-02-15T07:22:54.980Z,79.70
2023-02-15T07:25:25.396Z,78.70
2023-02-15T07:27:58.914Z,78.10
2023-02-15T07:30:28.067Z,76.50
2023-02-15T07:36:20.584Z,74.80
2023-02-15T07:38:49.611Z,74.50
2023-02-15T07:41:38.440Z,74.60
2023-02-15T07:44:32.636Z,74.50
2023-02-15T07:47:01.639Z,73.70
2023-02-15T07:49:31.778Z,72.20
2023-02-15T07:52:02.883Z,71.20
2023-02-15T07:54:32.038Z,71.00
2023-02-15T07:57:03.364Z,70.30
2023-02-15T07:59:32.610Z,69.30
2023-02-15T08:02:01.657Z,68.70
2023-02-15T08:04:30.647Z,69.50
2023-02-15T08:06:59.654Z,67.50
2023-02-15T08:09:28.644Z,66.50
2023-02-15T08:11:57.608Z,66.50
2023-02-15T08:14:29.767Z,65.60
2023-02-15T08:17:03.711Z,65.50
2023-02-15T08:19:35.750Z,65.30
2023-02-15T08:24:53.392Z,64.60
2023-02-15T08:27:27.854Z,65.30
2023-02-15T08:29:58.394Z,65.00
2023-02-15T08:32:27.671Z,66.40
2023-02-15T08:34:56.634Z,66.60
2023-02-15T08:37:26.959Z,65.60
2023-02-15T08:50:32.291Z,66.10
2023-02-15T08:55:30.518Z,62.10
2023-02-15T09:00:48.498Z,59.60
2023-02-15T09:03:17.574Z,58.80
2023-02-15T09:05:46.522Z,58.80
2023-02-15T09:08:15.826Z,58.30
2023-02-15T09:10:44.927Z,57.60
2023-02-15T09:13:14.400Z,58.00
2023-02-15T09:15:43.482Z,60.00
2023-02-15T09:18:18.206Z,58.90
2023-02-15T09:20:47.436Z,58.50
2023-02-15T09:23:26.813Z,58.60
2023-02-15T09:25:56.452Z,57.20
2023-02-15T09:28:25.519Z,56.10
2023-02-15T09:30:54.567Z,56.60
2023-02-15T09:33:26.454Z,55.40
2023-02-15T09:35:55.461Z,56.30
2023-02-15T09:38:24.460Z,55.00
2023-02-15T09:41:07.479Z,55.60
2023-02-15T09:43:45.428Z,55.70
2023-02-15T09:46:30.274Z,55.00
2023-02-15T09:49:30.147Z,53.70
2023-02-15T09:52:34.060Z,56.70
2023-02-15T09:55:36.373Z,55.50
2023-02-15T09:58:13.570Z,52.70
2023-02-15T10:00:50.732Z,51.60
2023-02-15T10:04:00.237Z,52.50
2023-02-15T10:06:43.332Z,53.70
2023-02-15T10:09:33.750Z,52.00
2023-02-15T10:12:30.785Z,53.50
2023-02-15T10:15:35.955Z,52.20
2023-02-15T10:18:25.731Z,52.10
2023-02-15T10:21:04.294Z,50.60
2023-02-15T10:24:18.193Z,53.10
2023-02-15T10:26:48.785Z,50.90
2023-02-15T10:29:30.096Z,49.60
2023-02-15T10:32:08.215Z,51.20
2023-02-15T10:34:41.352Z,51.60
2023-02-15T10:37:37.822Z,50.70
2023-02-15T10:43:27.542Z,49.00
2023-02-15T10:46:04.525Z,47.90
2023-02-15T10:48:47.274Z,48.70
2023-02-15T10:54:24.160Z,47.70
2023-02-15T10:57:04.565Z,47.30
2023-02-15T11:00:00.866Z,47.10
2023-02-15T11:02:59.400Z,48.30
2023-02-15T11:05:40.877Z,46.70
2023-02-15T11:08:12.656Z,45.10
2023-02-15T11:10:45.781Z,46.60
2023-02-15T11:13:19.274Z,44.90
2023-02-15T11:16:11.108Z,44.70
2023-02-15T11:19:02.792Z,43.20
2023-02-15T11:21:38.105Z,44.20
2023-02-15T11:30:01.787Z,43.90
2023-02-15T11:32:52.794Z,44.20
2023-02-15T11:35:27.973Z,43.90
2023-02-15T11:38:03.885Z,44.50
2023-02-15T11:40:35.516Z,42.90
2023-02-15T11:43:09.725Z,41.70
2023-02-15T11:45:42.849Z,41.70
2023-02-15T11:48:14.177Z,42.20
2023-02-15T11:50:44.931Z,40.80
2023-02-15T11:53:16.869Z,41.10
2023-02-15T11:55:48.064Z,42.60
2023-02-15T11:58:30.746Z,42.30
2023-02-15T12:01:05.383Z,38.30
2023-02-15T12:03:54.473Z,38.90
2023-02-15T12:06:27.752Z,38.80
2023-02-15T12:09:08.081Z,38.70
2023-02-15T12:11:40.110Z,38.50
2023-02-15T12:14:28.495Z,36.40
2023-02-15T12:19:46.667Z,37.70
2023-02-15T12:22:26.293Z,37.50
2023-02-15T12:25:25.205Z,37.30
2023-02-15T12:27:54.428Z,36.50
2023-02-15T12:30:30.947Z,37.20
2023-02-15T12:33:08.569Z,36.30
2023-02-15T12:35:39.128Z,36.20
2023-02-15T12:38:41.653Z,35.90
2023-02-15T12:41:27.644Z,35.20
2023-02-15T12:44:14.424Z,34.90
2023-02-15T12:46:45.790Z,35.40
2023-02-15T12:49:21.060Z,34.80
2023-02-15T12:51:52.502Z,35.40
2023-02-15T12:57:30.234Z,34.20
2023-02-15T13:02:50.959Z,33.00
2023-02-15T13:05:27.358Z,33.00
2023-02-15T13:07:59.424Z,32.60
2023-02-15T13:10:31.806Z,32.90
2023-02-15T13:13:04.043Z,31.90
2023-02-15T13:15:38.212Z,32.80
2023-02-15T13:18:12.512Z,32.40
2023-02-15T13:20:46.315Z,31.60
2023-02-15T13:23:30.078Z,31.00
2023-02-15T13:26:01.176Z,30.50
2023-02-15T13:28:42.274Z,30.70
2023-02-15T13:31:17.079Z,30.70
2023-02-15T13:34:12.092Z,30.40
2023-02-15T13:36:51.944Z,29.70
2023-02-15T13:39:56.078Z,29.80
2023-02-15T13:42:30.144Z,29.90
2023-02-15T13:45:32.983Z,29.50
2023-02-15T13:48:11.142Z,29.30
2023-02-15T13:51:03.951Z,29.30
2023-02-15T13:54:03.038Z,28.90
2023-02-15T13:56:42.852Z,29.30
2023-02-15T13:59:47.745Z,28.70
2023-02-15T14:02:51.166Z,28.90
2023-02-15T14:05:35.941Z,28.70
2023-02-15T14:08:14.377Z,29.20
2023-02-15T14:10:57.081Z,28.80
2023-02-15T14:14:01.724Z,29.20
2023-02-15T14:16:47.988Z,28.80
2023-02-15T14:19:46.936Z,28.50
2023-02-15T14:22:25.600Z,28.10
2023-02-15T14:25:08.178Z,28.20
2023-02-15T14:27:53.232Z,28.90
2023-02-15T14:30:43.437Z,28.00
2023-02-15T14:33:35.271Z,28.50
2023-02-15T14:36:07.907Z,28.10
2023-02-15T14:38:51.316Z,27.40
2023-02-15T14:44:16.086Z,28.70
2023-02-15T14:47:10.421Z,28.30
2023-02-15T14:49:41.952Z,27.90
2023-02-15T14:52:12.714Z,28.50
2023-02-15T14:55:01.642Z,28.70
2023-02-15T14:57:36.733Z,29.10
2023-02-15T15:00:41.606Z,28.80
2023-02-15T15:06:25.749Z,29.70
2023-02-15T15:09:00.734Z,28.60
2023-02-15T15:11:51.606Z,29.00
2023-02-15T15:14:58.157Z,29.20
2023-02-15T15:18:02.702Z,29.50
2023-02-15T15:20:51.892Z,30.00
2023-02-15T15:23:41.724Z,29.80
2023-02-15T15:26:34.639Z,30.00
2023-02-15T15:29:04.918Z,30.50
2023-02-15T15:31:47.746Z,30.00
2023-02-15T15:34:47.607Z,30.00
2023-02-15T15:37:49.363Z,30.40
2023-02-15T15:44:00.727Z,29.80
2023-02-15T15:47:03.277Z,29.70
2023-02-15T15:49:35.227Z,29.30
2023-02-15T15:52:13.295Z,29.20
2023-02-15T15:54:45.643Z,29.60
2023-02-15T15:57:36.340Z,29.40
2023-02-15T16:00:07.120Z,29.40
2023-02-15T16:03:11.999Z,30.60
2023-02-15T16:05:42.133Z,30.60
2023-02-15T16:08:11.238Z,32.40
2023-02-15T16:10:42.943Z,33.30
2023-02-15T16:13:16.337Z,33.90
2023-02-15T16:15:50.776Z,34.30
2023-02-15T16:18:21.754Z,35.00
2023-02-15T16:20:54.759Z,35.40
2023-02-15T16:24:06.872Z,35.90
2023-02-15T16:26:51.436Z,36.20
2023-02-15T16:29:28.542Z,36.80
2023-02-15T16:32:04.828Z,37.20
2023-02-15T16:34:34.823Z,37.60
2023-02-15T16:37:17.234Z,38.30
2023-02-15T16:39:49.257Z,38.70
2023-02-15T16:45:11.590Z,39.10
2023-02-15T16:50:34.407Z,38.50
2023-02-15T16:53:05.631Z,39.70
2023-02-15T16:55:57.070Z,40.30
2023-02-15T16:58:33.020Z,40.10
2023-02-15T17:01:05.395Z,40.30
2023-02-15T17:03:34.675Z,41.00
2023-02-15T17:06:05.950Z,41.50
2023-02-15T17:08:38.200Z,41.80
2023-02-15T17:11:19.499Z,42.40
2023-02-15T17:14:23.761Z,42.90
2023-02-15T17:16:55.558Z,42.20
2023-02-15T17:19:28.703Z,43.40
2023-02-15T17:22:00.502Z,43.80
2023-02-15T17:24:42.490Z,43.50
2023-02-15T17:27:18.140Z,44.10
2023-02-15T17:29:52.983Z,44.30
2023-02-15T17:32:23.997Z,44.90
2023-02-15T17:35:01.456Z,45.50
2023-02-15T17:37:34.590Z,45.90
2023-02-15T17:40:19.055Z,46.40
2023-02-15T17:42:48.271Z,47.00
2023-02-15T17:45:19.453Z,47.30
2023-02-15T17:47:50.870Z,47.40
2023-02-15T17:50:23.160Z,47.70
2023-02-15T17:53:10.291Z,47.80
2023-02-15T17:55:43.291Z,47.90
2023-02-15T17:58:14.323Z,47.90
2023-02-15T18:01:05.224Z,48.60
2023-02-15T18:04:00.526Z,48.60
2023-02-15T18:06:47.385Z,49.10
2023-02-15T18:09:35.399Z,49.90
2023-02-15T18:12:05.246Z,50.60
2023-02-15T18:14:34.380Z,50.80
2023-02-15T18:17:24.390Z,51.20
2023-02-15T18:19:54.436Z,51.40
2023-02-15T18:22:42.237Z,51.30
2023-02-15T18:25:16.955Z,51.80
2023-02-15T18:27:46.065Z,52.60
2023-02-15T18:30:34.754Z,52.50
2023-02-15T18:33:05.550Z,53.00
2023-02-15T18:35:35.399Z,53.20
2023-02-15T18:38:04.469Z,53.40
2023-02-15T18:40:33.571Z,53.20
2023-02-15T18:43:02.613Z,53.60
2023-02-15T18:45:33.400Z,53.80
2023-02-15T18:48:22.578Z,53.60
2023-02-15T18:50:52.608Z,53.70
2023-02-15T18:53:40.018Z,53.60
2023-02-15T18:56:14.396Z,53.70
2023-02-15T18:58:45.699Z,53.70
2023-02-15T19:01:18.118Z,53.70
2023-02-15T19:03:49.839Z,53.90
2023-02-15T19:09:07.713Z,54.30
2023-02-15T19:11:36.720Z,54.70
2023-02-15T19:14:30.004Z,56.60
2023-02-15T19:17:00.426Z,56.20
2023-02-15T19:19:31.148Z,56.90
2023-02-15T19:22:00.271Z,56.60
2023-02-15T19:24:37.932Z,56.80
2023-02-15T19:27:08.549Z,57.50
2023-02-15T19:32:24.692Z,57.30
2023-02-15T19:37:43.509Z,58.20
2023-02-15T19:40:22.393Z,58.60
2023-02-15T19:42:51.869Z,59.00
2023-02-15T19:48:09.433Z,59.10
2023-02-15T19:50:57.249Z,59.00
2023-02-15T19:53:28.012Z,59.10
2023-02-15T19:55:57.203Z,60.00
2023-02-15T19:58:26.497Z,60.10
2023-02-15T20:00:55.681Z,60.30
2023-02-15T20:03:43.081Z,60.80
2023-02-15T20:06:16.242Z,60.20
2023-02-15T20:08:46.229Z,61.10
2023-02-15T20:11:15.907Z,62.10
2023-02-15T20:13:44.970Z,63.00
2023-02-15T20:16:14.126Z,62.60
2023-02-15T20:19:00.770Z,63.60
2023-02-15T20:21:31.612Z,64.30
2023-02-15T20:24:02.815Z,65.40
2023-02-15T20:26:33.434Z,66.30
2023-02-15T20:29:03.439Z,66.60
2023-02-15T20:31:33.222Z,66.70
2023-02-15T20:34:02.361Z,66.50
2023-02-15T20:36:33.397Z,66.90
2023-02-15T20:39:22.474Z,66.90
2023-02-15T20:41:51.429Z,67.00
2023-02-15T20:44:23.701Z,67.20
2023-02-15T20:46:54.821Z,68.20
2023-02-15T20:49:25.334Z,68.90
2023-02-15T20:51:57.233Z,69.50
2023-02-15T20:54:28.313Z,69.70
2023-02-15T20:56:57.573Z,69.50
2023-02-15T20:59:28.621Z,69.30
2023-02-15T21:02:00.735Z,69.60
2023-02-15T21:04:50.344Z,69.60
2023-02-15T21:07:22.259Z,69.00
2023-02-15T21:09:52.658Z,68.40
2023-02-15T21:12:22.877Z,68.70
2023-02-15T21:15:27.872Z,69.10
2023-02-15T21:17:58.397Z,69.30
2023-02-15T21:20:28.485Z,70.00
2023-02-15T21:25:46.922Z,69.70
2023-02-15T21:28:21.612Z,70.10
2023-02-15T21:31:09.625Z,70.00
2023-02-15T21:33:38.699Z,70.50
2023-02-15T21:36:14.509Z,70.60
2023-02-15T21:38:46.842Z,71.50
2023-02-15T21:41:36.302Z,73.00
2023-02-15T21:44:38.914Z,72.20
2023-02-15T21:47:28.065Z,71.60
2023-02-15T21:53:01.097Z,72.20
2023-02-15T21:55:32.814Z,72.90
2023-02-15T21:58:02.000Z,73.90
2023-02-15T22:00:32.928Z,73.80
2023-02-15T22:03:02.714Z,75.70
2023-02-15T22:05:33.442Z,76.50
2023-02-15T22:08:21.374Z,77.10
2023-02-15T22:10:51.922Z,77.30
2023-02-15T22:13:28.783Z,78.20
2023-02-15T22:15:58.468Z,79.10
2023-02-15T22:18:30.791Z,80.90
2023-02-15T22:21:01.497Z,82.40
2023-02-15T22:23:30.867Z,82.10
2023-02-15T22:26:05.404Z,82.10
2023-02-15T22:28:36.294Z,82.20
2023-02-15T22:31:08.344Z,82.10
2023-02-15T22:33:37.486Z,82.50
2023-02-15T22:36:06.858Z,82.30
2023-02-15T22:38:35.954Z,82.60
2023-02-15T22:41:06.920Z,83.10
2023-02-15T22:43:39.501Z,83.90
2023-02-15T22:46:15.183Z,83.80
2023-02-15T22:48:44.974Z,83.30
2023-02-15T22:54:22.217Z,83.10
2023-02-15T22:56:54.839Z,83.80
2023-02-15T22:59:29.030Z,84.20
2023-02-15T23:01:58.665Z,84.60
2023-02-15T23:04:29.696Z,83.80
2023-02-15T23:07:01.196Z,83.50
2023-02-15T23:09:30.319Z,83.50
2023-02-15T23:12:00.782Z,84.20
2023-02-15T23:14:35.782Z,84.00
2023-02-15T23:17:04.916Z,82.80
2023-02-15T23:19:33.959Z,83.00
2023-02-15T23:22:03.005Z,84.10
2023-02-15T23:24:54.273Z,85.70
2023-02-15T23:27:42.189Z,84.40
2023-02-15T23:36:10.693Z,82.30
2023-02-15T23:38:39.819Z,82.10
2023-02-15T23:41:20.914Z,82.30
2023-02-15T23:43:55.085Z,82.60
2023-02-15T23:46:34.997Z,83.20
2023-02-15T23:49:15.160Z,83.00
2023-02-15T23:51:45.463Z,83.80
2023-02-15T23:54:15.165Z,84.30
2023-02-15T23:57:03.830Z,85.10
2023-02-15T23:59:34.594Z,85.50
